sensor_id;sensor_type;location;lat;lon;timestamp;temperature;humidity
29241;DHT22;16268;49.880;8.648;2023-06-04T00:02:04;15.40;92.20
29241;DHT22;16268;49.880;8.648;2023-06-04T00:04:30;15.40;92.20
29241;DHT22;16268;49.880;8.648;2023-06-04T00:06:55;15.40;92.10
29241;DHT22;16268;49.880;8.648;2023-06-04T00:09:21;15.30;92.30
29241;DHT22;16268;49.880;8.648;2023-06-04T00:11:47;15.20;92.60
29241;DHT22;16268;49.880;8.648;2023-06-04T00:14:14;15.20;92.90
29241;DHT22;16268;49.880;8.648;2023-06-04T00:16:40;15.20;92.80
29241;DHT22;16268;49.880;8.648;2023-06-04T00:19:06;15.20;92.90
29241;DHT22;16268;49.880;8.648;2023-06-04T00:21:32;15.20;93.10
29241;DHT22;16268;49.880;8.648;2023-06-04T00:23:59;15.20;92.80
29241;DHT22;16268;49.880;8.648;2023-06-04T00:26:24;15.10;93.00
29241;DHT22;16268;49.880;8.648;2023-06-04T00:28:50;15.00;93.10
29241;DHT22;16268;49.880;8.648;2023-06-04T00:31:16;15.00;93.60
29241;DHT22;16268;49.880;8.648;2023-06-04T00:33:42;14.90;93.40
29241;DHT22;16268;49.880;8.648;2023-06-04T00:36:08;14.90;93.70
29241;DHT22;16268;49.880;8.648;2023-06-04T00:38:33;14.80;93.90
29241;DHT22;16268;49.880;8.648;2023-06-04T00:40:59;14.80;94.30
29241;DHT22;16268;49.880;8.648;2023-06-04T00:43:25;14.80;94.70
29241;DHT22;16268;49.880;8.648;2023-06-04T00:45:56;14.70;94.80
29241;DHT22;16268;49.880;8.648;2023-06-04T00:48:23;14.70;94.70
29241;DHT22;16268;49.880;8.648;2023-06-04T00:50:48;14.70;94.90
29241;DHT22;16268;49.880;8.648;2023-06-04T00:53:14;14.60;94.80
29241;DHT22;16268;49.880;8.648;2023-06-04T00:55:40;14.50;94.90
29241;DHT22;16268;49.880;8.648;2023-06-04T00:58:06;14.50;95.50
29241;DHT22;16268;49.880;8.648;2023-06-04T01:00:34;14.40;95.10
29241;DHT22;16268;49.880;8.648;2023-06-04T01:03:00;14.40;95.40
29241;DHT22;16268;49.880;8.648;2023-06-04T01:05:36;14.40;95.20
29241;DHT22;16268;49.880;8.648;2023-06-04T01:08:04;14.40;95.20
29241;DHT22;16268;49.880;8.648;2023-06-04T01:10:31;14.30;95.40
29241;DHT22;16268;49.880;8.648;2023-06-04T01:12:56;14.40;95.80
29241;DHT22;16268;49.880;8.648;2023-06-04T01:18:44;14.40;95.10
29241;DHT22;16268;49.880;8.648;2023-06-04T01:21:12;14.30;95.00
29241;DHT22;16268;49.880;8.648;2023-06-04T01:23:50;14.30;95.10
29241;DHT22;16268;49.880;8.648;2023-06-04T01:26:27;14.30;95.30
29241;DHT22;16268;49.880;8.648;2023-06-04T01:28:55;14.30;95.50
29241;DHT22;16268;49.880;8.648;2023-06-04T01:31:23;14.20;95.50
29241;DHT22;16268;49.880;8.648;2023-06-04T01:33:55;14.20;95.80
29241;DHT22;16268;49.880;8.648;2023-06-04T01:36:24;14.10;96.10
29241;DHT22;16268;49.880;8.648;2023-06-04T01:38:50;14.10;96.10
29241;DHT22;16268;49.880;8.648;2023-06-04T01:41:16;14.10;96.40
29241;DHT22;16268;49.880;8.648;2023-06-04T01:43:42;14.10;96.40
29241;DHT22;16268;49.880;8.648;2023-06-04T01:46:08;14.10;96.40
29241;DHT22;16268;49.880;8.648;2023-06-04T01:48:33;14.10;96.30
29241;DHT22;16268;49.880;8.648;2023-06-04T01:50:59;14.00;96.20
29241;DHT22;16268;49.880;8.648;2023-06-04T01:53:25;14.00;96.10
29241;DHT22;16268;49.880;8.648;2023-06-04T01:55:51;14.10;96.20
29241;DHT22;16268;49.880;8.648;2023-06-04T01:58:18;14.10;96.00
29241;DHT22;16268;49.880;8.648;2023-06-04T02:00:48;14.10;95.70
29241;DHT22;16268;49.880;8.648;2023-06-04T02:03:15;14.10;95.90
29241;DHT22;16268;49.880;8.648;2023-06-04T02:05:41;14.00;95.80
29241;DHT22;16268;49.880;8.648;2023-06-04T02:08:06;14.00;96.00
29241;DHT22;16268;49.880;8.648;2023-06-04T02:10:34;13.90;96.10
29241;DHT22;16268;49.880;8.648;2023-06-04T02:13:01;14.00;96.20
29241;DHT22;16268;49.880;8.648;2023-06-04T02:15:29;13.90;96.20
29241;DHT22;16268;49.880;8.648;2023-06-04T02:17:58;13.90;96.30
29241;DHT22;16268;49.880;8.648;2023-06-04T02:20:26;13.90;96.40
29241;DHT22;16268;49.880;8.648;2023-06-04T02:22:53;13.90;96.60
29241;DHT22;16268;49.880;8.648;2023-06-04T02:25:18;13.90;96.50
29241;DHT22;16268;49.880;8.648;2023-06-04T02:27:44;13.90;96.60
29241;DHT22;16268;49.880;8.648;2023-06-04T02:30:10;13.90;96.60
29241;DHT22;16268;49.880;8.648;2023-06-04T02:32:35;13.80;96.50
29241;DHT22;16268;49.880;8.648;2023-06-04T02:35:02;13.80;96.50
29241;DHT22;16268;49.880;8.648;2023-06-04T02:37:28;13.80;96.60
29241;DHT22;16268;49.880;8.648;2023-06-04T02:39:54;13.70;96.80
29241;DHT22;16268;49.880;8.648;2023-06-04T02:42:20;13.70;96.80
29241;DHT22;16268;49.880;8.648;2023-06-04T02:44:46;13.70;97.00
29241;DHT22;16268;49.880;8.648;2023-06-04T02:47:11;13.60;97.10
29241;DHT22;16268;49.880;8.648;2023-06-04T02:49:37;13.50;97.40
29241;DHT22;16268;49.880;8.648;2023-06-04T02:52:04;13.60;97.60
29241;DHT22;16268;49.880;8.648;2023-06-04T02:54:30;13.60;97.60
29241;DHT22;16268;49.880;8.648;2023-06-04T02:56:56;13.50;97.70
29241;DHT22;16268;49.880;8.648;2023-06-04T02:59:21;13.50;97.80
29241;DHT22;16268;49.880;8.648;2023-06-04T03:01:47;13.50;98.00
29241;DHT22;16268;49.880;8.648;2023-06-04T03:04:15;13.50;98.20
29241;DHT22;16268;49.880;8.648;2023-06-04T03:06:41;13.40;98.10
29241;DHT22;16268;49.880;8.648;2023-06-04T03:09:12;13.40;98.40
29241;DHT22;16268;49.880;8.648;2023-06-04T03:11:37;13.30;98.70
29241;DHT22;16268;49.880;8.648;2023-06-04T03:14:03;13.30;98.90
29241;DHT22;16268;49.880;8.648;2023-06-04T03:16:29;13.20;98.90
29241;DHT22;16268;49.880;8.648;2023-06-04T03:18:54;13.30;99.00
29241;DHT22;16268;49.880;8.648;2023-06-04T03:21:21;13.30;99.10
29241;DHT22;16268;49.880;8.648;2023-06-04T03:23:47;13.30;99.20
29241;DHT22;16268;49.880;8.648;2023-06-04T03:26:13;13.40;99.20
29241;DHT22;16268;49.880;8.648;2023-06-04T03:28:39;13.40;99.10
29241;DHT22;16268;49.880;8.648;2023-06-04T03:31:06;13.40;99.20
29241;DHT22;16268;49.880;8.648;2023-06-04T03:33:31;13.30;99.20
29241;DHT22;16268;49.880;8.648;2023-06-04T03:35:57;13.30;99.00
29241;DHT22;16268;49.880;8.648;2023-06-04T03:38:26;13.30;99.20
29241;DHT22;16268;49.880;8.648;2023-06-04T03:40:51;13.30;99.30
29241;DHT22;16268;49.880;8.648;2023-06-04T03:43:19;13.30;99.30
29241;DHT22;16268;49.880;8.648;2023-06-04T03:45:45;13.40;99.40
29241;DHT22;16268;49.880;8.648;2023-06-04T03:48:10;13.30;99.20
29241;DHT22;16268;49.880;8.648;2023-06-04T03:50:36;13.30;99.60
29241;DHT22;16268;49.880;8.648;2023-06-04T03:53:02;13.30;99.40
29241;DHT22;16268;49.880;8.648;2023-06-04T03:55:33;13.30;99.30
29241;DHT22;16268;49.880;8.648;2023-06-04T03:57:59;13.40;99.40
29241;DHT22;16268;49.880;8.648;2023-06-04T04:00:24;13.30;99.60
29241;DHT22;16268;49.880;8.648;2023-06-04T04:02:53;13.30;99.30
29241;DHT22;16268;49.880;8.648;2023-06-04T04:05:19;13.30;99.50
29241;DHT22;16268;49.880;8.648;2023-06-04T04:07:45;13.30;99.30
29241;DHT22;16268;49.880;8.648;2023-06-04T04:10:12;13.40;99.40
29241;DHT22;16268;49.880;8.648;2023-06-04T04:12:38;13.30;99.60
29241;DHT22;16268;49.880;8.648;2023-06-04T04:15:04;13.40;99.90
29241;DHT22;16268;49.880;8.648;2023-06-04T04:17:30;13.50;99.90
29241;DHT22;16268;49.880;8.648;2023-06-04T04:19:56;13.50;99.90
29241;DHT22;16268;49.880;8.648;2023-06-04T04:22:21;13.50;99.90
29241;DHT22;16268;49.880;8.648;2023-06-04T04:24:47;13.50;99.90
29241;DHT22;16268;49.880;8.648;2023-06-04T04:27:13;13.60;99.90
29241;DHT22;16268;49.880;8.648;2023-06-04T04:29:38;13.70;99.90
29241;DHT22;16268;49.880;8.648;2023-06-04T04:32:05;13.80;99.90
29241;DHT22;16268;49.880;8.648;2023-06-04T04:34:37;13.90;99.90
29241;DHT22;16268;49.880;8.648;2023-06-04T04:37:05;13.80;99.90
29241;DHT22;16268;49.880;8.648;2023-06-04T04:39:34;13.80;99.80
29241;DHT22;16268;49.880;8.648;2023-06-04T04:42:00;13.90;99.70
29241;DHT22;16268;49.880;8.648;2023-06-04T04:44:26;14.00;99.90
29241;DHT22;16268;49.880;8.648;2023-06-04T04:46:51;14.10;99.50
29241;DHT22;16268;49.880;8.648;2023-06-04T04:49:17;14.20;99.40
29241;DHT22;16268;49.880;8.648;2023-06-04T04:51:43;14.20;99.70
29241;DHT22;16268;49.880;8.648;2023-06-04T04:54:09;14.30;99.40
29241;DHT22;16268;49.880;8.648;2023-06-04T04:56:35;14.40;99.80
29241;DHT22;16268;49.880;8.648;2023-06-04T04:59:01;14.50;98.50
29241;DHT22;16268;49.880;8.648;2023-06-04T05:01:26;14.30;98.50
29241;DHT22;16268;49.880;8.648;2023-06-04T05:03:52;14.40;98.70
29241;DHT22;16268;49.880;8.648;2023-06-04T05:06:18;14.40;98.60
29241;DHT22;16268;49.880;8.648;2023-06-04T05:08:43;14.60;98.00
29241;DHT22;16268;49.880;8.648;2023-06-04T05:11:09;14.70;97.90
29241;DHT22;16268;49.880;8.648;2023-06-04T05:13:35;14.90;97.50
29241;DHT22;16268;49.880;8.648;2023-06-04T05:16:02;14.80;97.30
29241;DHT22;16268;49.880;8.648;2023-06-04T05:18:32;15.00;97.60
29241;DHT22;16268;49.880;8.648;2023-06-04T05:20:58;15.50;96.30
29241;DHT22;16268;49.880;8.648;2023-06-04T05:23:26;15.90;95.60
29241;DHT22;16268;49.880;8.648;2023-06-04T05:25:52;15.80;95.50
29241;DHT22;16268;49.880;8.648;2023-06-04T05:28:18;15.70;95.20
29241;DHT22;16268;49.880;8.648;2023-06-04T05:30:43;16.10;94.90
29241;DHT22;16268;49.880;8.648;2023-06-04T05:33:09;17.20;93.30
29241;DHT22;16268;49.880;8.648;2023-06-04T05:35:46;18.10;90.70
29241;DHT22;16268;49.880;8.648;2023-06-04T05:38:12;18.00;89.00
29241;DHT22;16268;49.880;8.648;2023-06-04T05:40:42;17.70;89.30
29241;DHT22;16268;49.880;8.648;2023-06-04T05:43:08;17.80;89.50
29241;DHT22;16268;49.880;8.648;2023-06-04T05:45:33;18.60;87.20
29241;DHT22;16268;49.880;8.648;2023-06-04T05:47:59;19.70;83.70
29241;DHT22;16268;49.880;8.648;2023-06-04T05:50:24;20.90;78.70
29241;DHT22;16268;49.880;8.648;2023-06-04T05:52:50;21.90;75.20
29241;DHT22;16268;49.880;8.648;2023-06-04T05:55:16;23.30;69.70
29241;DHT22;16268;49.880;8.648;2023-06-04T05:57:42;23.10;63.90
29241;DHT22;16268;49.880;8.648;2023-06-04T06:00:08;22.10;64.70
29241;DHT22;16268;49.880;8.648;2023-06-04T06:02:35;21.90;65.40
29241;DHT22;16268;49.880;8.648;2023-06-04T06:05:00;21.40;66.50
29241;DHT22;16268;49.880;8.648;2023-06-04T06:07:26;21.50;66.20
29241;DHT22;16268;49.880;8.648;2023-06-04T06:09:52;21.90;66.70
29241;DHT22;16268;49.880;8.648;2023-06-04T06:12:19;22.90;64.10
29241;DHT22;16268;49.880;8.648;2023-06-04T06:14:44;22.30;63.20
29241;DHT22;16268;49.880;8.648;2023-06-04T06:17:10;23.20;62.90
29241;DHT22;16268;49.880;8.648;2023-06-04T06:19:36;23.90;60.90
29241;DHT22;16268;49.880;8.648;2023-06-04T06:22:02;23.40;58.70
29241;DHT22;16268;49.880;8.648;2023-06-04T06:24:29;22.80;60.70
29241;DHT22;16268;49.880;8.648;2023-06-04T06:26:55;22.40;61.30
29241;DHT22;16268;49.880;8.648;2023-06-04T06:29:20;22.10;61.80
29241;DHT22;16268;49.880;8.648;2023-06-04T06:31:46;22.40;62.40
29241;DHT22;16268;49.880;8.648;2023-06-04T06:34:12;23.20;59.60
29241;DHT22;16268;49.880;8.648;2023-06-04T06:36:38;23.80;60.20
29241;DHT22;16268;49.880;8.648;2023-06-04T06:39:03;24.10;58.50
29241;DHT22;16268;49.880;8.648;2023-06-04T06:41:29;23.60;57.50
29241;DHT22;16268;49.880;8.648;2023-06-04T06:43:57;23.50;58.50
29241;DHT22;16268;49.880;8.648;2023-06-04T06:46:25;23.60;58.40
29241;DHT22;16268;49.880;8.648;2023-06-04T06:48:51;24.00;57.70
29241;DHT22;16268;49.880;8.648;2023-06-04T06:51:17;23.60;56.90
29241;DHT22;16268;49.880;8.648;2023-06-04T06:53:43;23.30;57.90
29241;DHT22;16268;49.880;8.648;2023-06-04T06:56:09;24.00;58.00
29241;DHT22;16268;49.880;8.648;2023-06-04T06:58:34;25.10;55.20
29241;DHT22;16268;49.880;8.648;2023-06-04T07:01:00;24.80;55.20
29241;DHT22;16268;49.880;8.648;2023-06-04T07:03:26;24.90;53.40
29241;DHT22;16268;49.880;8.648;2023-06-04T07:05:52;24.90;54.40
29241;DHT22;16268;49.880;8.648;2023-06-04T07:08:17;24.80;53.90
29241;DHT22;16268;49.880;8.648;2023-06-04T07:10:43;24.80;54.70
29241;DHT22;16268;49.880;8.648;2023-06-04T07:13:08;25.10;54.40
29241;DHT22;16268;49.880;8.648;2023-06-04T07:15:34;25.30;53.60
29241;DHT22;16268;49.880;8.648;2023-06-04T07:18:00;25.80;52.50
29241;DHT22;16268;49.880;8.648;2023-06-04T07:20:28;25.50;52.20
29241;DHT22;16268;49.880;8.648;2023-06-04T07:22:54;25.30;52.10
29241;DHT22;16268;49.880;8.648;2023-06-04T07:25:20;25.70;53.30
29241;DHT22;16268;49.880;8.648;2023-06-04T07:27:48;26.10;53.40
29241;DHT22;16268;49.880;8.648;2023-06-04T07:30:15;25.50;50.70
29241;DHT22;16268;49.880;8.648;2023-06-04T07:32:41;25.20;53.40
29241;DHT22;16268;49.880;8.648;2023-06-04T07:35:07;25.40;53.20
29241;DHT22;16268;49.880;8.648;2023-06-04T07:37:33;24.60;52.70
29241;DHT22;16268;49.880;8.648;2023-06-04T07:39:58;24.20;55.20
29241;DHT22;16268;49.880;8.648;2023-06-04T07:42:24;24.50;53.80
29241;DHT22;16268;49.880;8.648;2023-06-04T07:44:49;25.00;53.70
29241;DHT22;16268;49.880;8.648;2023-06-04T07:47:15;24.40;52.40
29241;DHT22;16268;49.880;8.648;2023-06-04T07:49:40;24.00;54.10
29241;DHT22;16268;49.880;8.648;2023-06-04T07:52:06;24.00;55.50
29241;DHT22;16268;49.880;8.648;2023-06-04T07:54:32;24.40;53.60
29241;DHT22;16268;49.880;8.648;2023-06-04T07:56:58;23.60;54.30
29241;DHT22;16268;49.880;8.648;2023-06-04T07:59:24;23.40;54.90
29241;DHT22;16268;49.880;8.648;2023-06-04T08:01:50;24.00;54.50
29241;DHT22;16268;49.880;8.648;2023-06-04T08:04:17;24.20;53.80
29241;DHT22;16268;49.880;8.648;2023-06-04T08:06:42;24.30;53.60
29241;DHT22;16268;49.880;8.648;2023-06-04T08:09:10;24.70;54.00
29241;DHT22;16268;49.880;8.648;2023-06-04T08:11:37;25.00;52.10
29241;DHT22;16268;49.880;8.648;2023-06-04T08:14:02;24.90;52.20
29241;DHT22;16268;49.880;8.648;2023-06-04T08:16:28;25.10;51.00
29241;DHT22;16268;49.880;8.648;2023-06-04T08:18:53;24.80;52.00
29241;DHT22;16268;49.880;8.648;2023-06-04T08:21:28;24.60;52.30
29241;DHT22;16268;49.880;8.648;2023-06-04T08:23:54;25.40;51.20
29241;DHT22;16268;49.880;8.648;2023-06-04T08:26:21;24.90;51.70
29241;DHT22;16268;49.880;8.648;2023-06-04T08:28:50;24.90;52.50
29241;DHT22;16268;49.880;8.648;2023-06-04T08:31:15;25.20;52.30
29241;DHT22;16268;49.880;8.648;2023-06-04T08:33:42;24.70;52.30
29241;DHT22;16268;49.880;8.648;2023-06-04T08:36:08;24.40;52.90
29241;DHT22;16268;49.880;8.648;2023-06-04T08:38:33;25.40;52.70
29241;DHT22;16268;49.880;8.648;2023-06-04T08:41:10;25.40;52.20
29241;DHT22;16268;49.880;8.648;2023-06-04T08:43:39;25.60;52.20
29241;DHT22;16268;49.880;8.648;2023-06-04T08:46:05;25.60;52.30
29241;DHT22;16268;49.880;8.648;2023-06-04T08:48:34;25.50;52.20
29241;DHT22;16268;49.880;8.648;2023-06-04T08:51:02;25.10;52.40
29241;DHT22;16268;49.880;8.648;2023-06-04T08:53:29;25.40;51.70
29241;DHT22;16268;49.880;8.648;2023-06-04T08:55:55;25.70;51.50
29241;DHT22;16268;49.880;8.648;2023-06-04T08:58:21;25.40;51.40
29241;DHT22;16268;49.880;8.648;2023-06-04T09:00:48;25.40;51.60
29241;DHT22;16268;49.880;8.648;2023-06-04T09:03:15;25.50;51.70
29241;DHT22;16268;49.880;8.648;2023-06-04T09:05:41;26.10;51.40
29241;DHT22;16268;49.880;8.648;2023-06-04T09:08:11;27.00;51.00
29241;DHT22;16268;49.880;8.648;2023-06-04T09:10:38;26.20;50.60
29241;DHT22;16268;49.880;8.648;2023-06-04T09:13:04;26.60;51.10
29241;DHT22;16268;49.880;8.648;2023-06-04T09:15:32;26.70;48.40
29241;DHT22;16268;49.880;8.648;2023-06-04T09:17:57;26.60;48.30
29241;DHT22;16268;49.880;8.648;2023-06-04T09:20:24;26.20;49.00
29241;DHT22;16268;49.880;8.648;2023-06-04T09:22:49;25.70;49.30
29241;DHT22;16268;49.880;8.648;2023-06-04T09:25:26;25.40;49.50
29241;DHT22;16268;49.880;8.648;2023-06-04T09:27:56;26.20;49.90
29241;DHT22;16268;49.880;8.648;2023-06-04T09:30:23;26.70;48.30
29241;DHT22;16268;49.880;8.648;2023-06-04T09:32:49;26.70;49.40
29241;DHT22;16268;49.880;8.648;2023-06-04T09:35:19;26.60;48.80
29241;DHT22;16268;49.880;8.648;2023-06-04T09:37:57;26.50;47.60
29241;DHT22;16268;49.880;8.648;2023-06-04T09:40:23;25.80;49.80
29241;DHT22;16268;49.880;8.648;2023-06-04T09:42:49;25.80;49.30
29241;DHT22;16268;49.880;8.648;2023-06-04T09:47:54;26.10;49.40
29241;DHT22;16268;49.880;8.648;2023-06-04T09:50:26;25.70;49.00
29241;DHT22;16268;49.880;8.648;2023-06-04T09:52:52;25.60;50.50
29241;DHT22;16268;49.880;8.648;2023-06-04T09:55:19;25.30;48.30
29241;DHT22;16268;49.880;8.648;2023-06-04T09:57:50;25.50;47.90
29241;DHT22;16268;49.880;8.648;2023-06-04T10:00:25;25.40;47.10
29241;DHT22;16268;49.880;8.648;2023-06-04T10:02:57;25.60;46.90
29241;DHT22;16268;49.880;8.648;2023-06-04T10:05:24;25.30;47.10
29241;DHT22;16268;49.880;8.648;2023-06-04T10:07:51;25.00;47.60
29241;DHT22;16268;49.880;8.648;2023-06-04T10:10:25;25.00;47.60
29241;DHT22;16268;49.880;8.648;2023-06-04T10:12:57;25.10;46.80
29241;DHT22;16268;49.880;8.648;2023-06-04T10:15:25;25.20;47.30
29241;DHT22;16268;49.880;8.648;2023-06-04T10:17:51;25.60;48.20
29241;DHT22;16268;49.880;8.648;2023-06-04T10:20:17;25.80;47.20
29241;DHT22;16268;49.880;8.648;2023-06-04T10:22:43;26.40;47.40
29241;DHT22;16268;49.880;8.648;2023-06-04T10:25:09;27.10;46.40
29241;DHT22;16268;49.880;8.648;2023-06-04T10:27:35;26.80;45.40
29241;DHT22;16268;49.880;8.648;2023-06-04T10:30:03;26.20;43.90
29241;DHT22;16268;49.880;8.648;2023-06-04T10:32:30;25.70;45.40
29241;DHT22;16268;49.880;8.648;2023-06-04T10:34:56;25.70;45.60
29241;DHT22;16268;49.880;8.648;2023-06-04T10:37:24;25.60;45.60
29241;DHT22;16268;49.880;8.648;2023-06-04T10:39:55;26.20;46.30
29241;DHT22;16268;49.880;8.648;2023-06-04T10:42:22;26.50;45.10
29241;DHT22;16268;49.880;8.648;2023-06-04T10:44:53;25.90;44.60
29241;DHT22;16268;49.880;8.648;2023-06-04T10:47:26;25.80;46.40
29241;DHT22;16268;49.880;8.648;2023-06-04T10:49:53;25.90;45.50
29241;DHT22;16268;49.880;8.648;2023-06-04T10:52:20;25.90;46.00
29241;DHT22;16268;49.880;8.648;2023-06-04T10:54:47;25.80;45.70
29241;DHT22;16268;49.880;8.648;2023-06-04T10:57:18;26.00;45.70
29241;DHT22;16268;49.880;8.648;2023-06-04T10:59:58;25.80;45.00
29241;DHT22;16268;49.880;8.648;2023-06-04T11:02:24;25.80;45.00
29241;DHT22;16268;49.880;8.648;2023-06-04T11:05:06;25.50;45.10
29241;DHT22;16268;49.880;8.648;2023-06-04T11:07:44;25.60;46.10
29241;DHT22;16268;49.880;8.648;2023-06-04T11:10:11;25.90;45.40
29241;DHT22;16268;49.880;8.648;2023-06-04T11:12:43;25.80;43.90
29241;DHT22;16268;49.880;8.648;2023-06-04T11:15:09;25.60;44.90
29241;DHT22;16268;49.880;8.648;2023-06-04T11:17:35;25.50;44.80
29241;DHT22;16268;49.880;8.648;2023-06-04T11:20:01;25.30;44.70
29241;DHT22;16268;49.880;8.648;2023-06-04T11:22:27;25.60;45.70
29241;DHT22;16268;49.880;8.648;2023-06-04T11:24:57;25.60;45.30
29241;DHT22;16268;49.880;8.648;2023-06-04T11:27:25;25.50;45.30
29241;DHT22;16268;49.880;8.648;2023-06-04T11:29:51;25.60;45.10
29241;DHT22;16268;49.880;8.648;2023-06-04T11:32:22;25.50;45.10
29241;DHT22;16268;49.880;8.648;2023-06-04T11:34:47;25.30;45.00
29241;DHT22;16268;49.880;8.648;2023-06-04T11:37:13;25.30;44.30
29241;DHT22;16268;49.880;8.648;2023-06-04T11:39:38;25.30;45.00
29241;DHT22;16268;49.880;8.648;2023-06-04T11:42:06;25.40;45.00
29241;DHT22;16268;49.880;8.648;2023-06-04T11:44:32;25.60;44.80
29241;DHT22;16268;49.880;8.648;2023-06-04T11:46:58;25.70;44.90
29241;DHT22;16268;49.880;8.648;2023-06-04T11:49:24;25.70;44.80
29241;DHT22;16268;49.880;8.648;2023-06-04T11:51:51;25.50;44.10
29241;DHT22;16268;49.880;8.648;2023-06-04T11:54:19;25.50;44.00
29241;DHT22;16268;49.880;8.648;2023-06-04T11:56:48;25.60;43.60
29241;DHT22;16268;49.880;8.648;2023-06-04T11:59:15;25.50;42.60
29241;DHT22;16268;49.880;8.648;2023-06-04T12:01:46;25.40;43.40
29241;DHT22;16268;49.880;8.648;2023-06-04T12:04:13;25.40;44.30
29241;DHT22;16268;49.880;8.648;2023-06-04T12:06:52;25.30;44.10
29241;DHT22;16268;49.880;8.648;2023-06-04T12:09:26;25.10;43.80
29241;DHT22;16268;49.880;8.648;2023-06-04T12:12:00;25.10;44.20
29241;DHT22;16268;49.880;8.648;2023-06-04T12:14:27;25.00;43.00
29241;DHT22;16268;49.880;8.648;2023-06-04T12:16:57;25.00;43.50
29241;DHT22;16268;49.880;8.648;2023-06-04T12:19:23;24.80;42.90
29241;DHT22;16268;49.880;8.648;2023-06-04T12:24:25;25.00;42.10
29241;DHT22;16268;49.880;8.648;2023-06-04T12:27:04;25.00;43.00
29241;DHT22;16268;49.880;8.648;2023-06-04T12:29:31;24.90;42.90
29241;DHT22;16268;49.880;8.648;2023-06-04T12:32:03;25.00;42.90
29241;DHT22;16268;49.880;8.648;2023-06-04T12:34:30;25.00;42.70
29241;DHT22;16268;49.880;8.648;2023-06-04T12:36:56;25.00;43.20
29241;DHT22;16268;49.880;8.648;2023-06-04T12:39:21;25.30;43.40
29241;DHT22;16268;49.880;8.648;2023-06-04T12:41:47;25.00;42.30
29241;DHT22;16268;49.880;8.648;2023-06-04T12:44:12;25.10;42.80
29241;DHT22;16268;49.880;8.648;2023-06-04T12:46:38;25.40;42.30
29241;DHT22;16268;49.880;8.648;2023-06-04T12:49:03;25.40;41.00
29241;DHT22;16268;49.880;8.648;2023-06-04T12:51:29;25.30;41.50
29241;DHT22;16268;49.880;8.648;2023-06-04T12:53:54;25.30;40.20
29241;DHT22;16268;49.880;8.648;2023-06-04T12:56:20;25.20;41.20
29241;DHT22;16268;49.880;8.648;2023-06-04T12:58:47;25.00;40.60
29241;DHT22;16268;49.880;8.648;2023-06-04T13:01:12;24.70;41.10
29241;DHT22;16268;49.880;8.648;2023-06-04T13:03:39;24.70;41.80
29241;DHT22;16268;49.880;8.648;2023-06-04T13:06:05;24.60;42.60
29241;DHT22;16268;49.880;8.648;2023-06-04T13:08:31;24.70;42.00
29241;DHT22;16268;49.880;8.648;2023-06-04T13:10:57;24.80;43.20
29241;DHT22;16268;49.880;8.648;2023-06-04T13:13:23;25.00;42.60
29241;DHT22;16268;49.880;8.648;2023-06-04T13:15:48;25.00;42.60
29241;DHT22;16268;49.880;8.648;2023-06-04T13:18:14;25.20;41.90
29241;DHT22;16268;49.880;8.648;2023-06-04T13:20:41;25.10;41.20
29241;DHT22;16268;49.880;8.648;2023-06-04T13:23:07;25.00;41.00
29241;DHT22;16268;49.880;8.648;2023-06-04T13:25:32;24.90;42.00
29241;DHT22;16268;49.880;8.648;2023-06-04T13:28:02;25.00;40.30
29241;DHT22;16268;49.880;8.648;2023-06-04T13:30:28;24.80;39.30
29241;DHT22;16268;49.880;8.648;2023-06-04T13:32:54;24.90;39.10
29241;DHT22;16268;49.880;8.648;2023-06-04T13:35:20;24.80;39.20
29241;DHT22;16268;49.880;8.648;2023-06-04T13:37:46;25.00;38.90
29241;DHT22;16268;49.880;8.648;2023-06-04T13:40:12;25.00;39.70
29241;DHT22;16268;49.880;8.648;2023-06-04T13:42:38;25.20;40.20
29241;DHT22;16268;49.880;8.648;2023-06-04T13:45:04;25.20;40.50
29241;DHT22;16268;49.880;8.648;2023-06-04T13:47:29;25.00;40.80
29241;DHT22;16268;49.880;8.648;2023-06-04T13:49:55;25.00;40.70
29241;DHT22;16268;49.880;8.648;2023-06-04T13:52:21;25.00;41.10
29241;DHT22;16268;49.880;8.648;2023-06-04T13:54:47;25.10;41.50
29241;DHT22;16268;49.880;8.648;2023-06-04T13:57:12;25.30;41.20
29241;DHT22;16268;49.880;8.648;2023-06-04T13:59:38;25.30;41.00
29241;DHT22;16268;49.880;8.648;2023-06-04T14:02:04;25.20;41.30
29241;DHT22;16268;49.880;8.648;2023-06-04T14:04:30;25.20;42.40
29241;DHT22;16268;49.880;8.648;2023-06-04T14:06:56;25.30;43.00
29241;DHT22;16268;49.880;8.648;2023-06-04T14:09:22;25.40;41.80
29241;DHT22;16268;49.880;8.648;2023-06-04T14:11:48;25.20;41.20
29241;DHT22;16268;49.880;8.648;2023-06-04T14:14:19;25.20;41.40
29241;DHT22;16268;49.880;8.648;2023-06-04T14:16:45;25.20;41.80
29241;DHT22;16268;49.880;8.648;2023-06-04T14:19:11;25.20;41.00
29241;DHT22;16268;49.880;8.648;2023-06-04T14:21:37;25.30;41.30
29241;DHT22;16268;49.880;8.648;2023-06-04T14:24:03;25.10;42.40
29241;DHT22;16268;49.880;8.648;2023-06-04T14:26:28;24.90;42.60
29241;DHT22;16268;49.880;8.648;2023-06-04T14:28:55;24.90;43.00
29241;DHT22;16268;49.880;8.648;2023-06-04T14:31:20;25.00;42.80
29241;DHT22;16268;49.880;8.648;2023-06-04T14:33:46;25.00;43.40
29241;DHT22;16268;49.880;8.648;2023-06-04T14:36:12;24.90;42.90
29241;DHT22;16268;49.880;8.648;2023-06-04T14:38:38;24.80;43.50
29241;DHT22;16268;49.880;8.648;2023-06-04T14:41:03;24.80;43.40
29241;DHT22;16268;49.880;8.648;2023-06-04T14:43:29;24.90;44.00
29241;DHT22;16268;49.880;8.648;2023-06-04T14:45:55;24.80;44.00
29241;DHT22;16268;49.880;8.648;2023-06-04T14:48:21;24.80;44.40
29241;DHT22;16268;49.880;8.648;2023-06-04T14:50:49;24.80;43.90
29241;DHT22;16268;49.880;8.648;2023-06-04T14:53:15;24.90;43.50
29241;DHT22;16268;49.880;8.648;2023-06-04T14:55:41;24.90;43.60
29241;DHT22;16268;49.880;8.648;2023-06-04T14:58:06;25.00;43.90
29241;DHT22;16268;49.880;8.648;2023-06-04T15:00:32;25.10;44.00
29241;DHT22;16268;49.880;8.648;2023-06-04T15:02:58;25.10;43.80
29241;DHT22;16268;49.880;8.648;2023-06-04T15:05:27;24.70;43.40
29241;DHT22;16268;49.880;8.648;2023-06-04T15:08:02;24.40;43.70
29241;DHT22;16268;49.880;8.648;2023-06-04T15:10:28;24.20;43.90
29241;DHT22;16268;49.880;8.648;2023-06-04T15:12:56;24.20;43.70
29241;DHT22;16268;49.880;8.648;2023-06-04T15:15:22;24.10;43.50
29241;DHT22;16268;49.880;8.648;2023-06-04T15:17:51;24.10;43.80
29241;DHT22;16268;49.880;8.648;2023-06-04T15:20:20;24.10;43.30
29241;DHT22;16268;49.880;8.648;2023-06-04T15:22:51;24.00;43.40
29241;DHT22;16268;49.880;8.648;2023-06-04T15:25:17;24.00;44.20
29241;DHT22;16268;49.880;8.648;2023-06-04T15:27:42;24.00;44.40
29241;DHT22;16268;49.880;8.648;2023-06-04T15:30:08;24.00;44.30
29241;DHT22;16268;49.880;8.648;2023-06-04T15:32:34;24.00;44.60
29241;DHT22;16268;49.880;8.648;2023-06-04T15:35:03;24.20;44.10
29241;DHT22;16268;49.880;8.648;2023-06-04T15:37:29;24.20;44.10